createdAt,value
2023-05-08T12:27:19.527Z,76.19
2023-05-08T12:29:47.823Z,75.85
2023-05-08T12:32:15.833Z,75.90
2023-05-08T12:34:43.860Z,75.69
2023-05-08T12:37:11.677Z,74.97
2023-05-08T12:39:44.638Z,74.90
2023-05-08T12:42:12.440Z,74.67
2023-05-08T12:44:40.320Z,74.38
2023-05-08T12:47:08.362Z,74.32
2023-05-08T12:49:37.598Z,74.34
2023-05-08T12:52:13.229Z,74.08
2023-05-08T12:54:48.587Z,73.74
2023-05-08T12:57:19.779Z,73.47
2023-05-08T12:59:47.555Z,73.31
2023-05-08T13:02:23.890Z,73.03
2023-05-08T13:04:56.149Z,73.02
2023-05-08T13:07:24.240Z,73.38
2023-05-08T13:10:03.687Z,73.25
2023-05-08T13:12:32.073Z,73.43
2023-05-08T13:15:00.445Z,73.30
2023-05-08T13:17:28.226Z,73.10
2023-05-08T13:19:56.043Z,73.26
2023-05-08T13:22:26.676Z,73.27
2023-05-08T13:24:54.750Z,73.13
2023-05-08T13:27:23.391Z,73.19
2023-05-08T13:29:51.276Z,73.19
2023-05-08T13:32:19.478Z,72.85
2023-05-08T13:34:50.221Z,72.64
2023-05-08T13:37:19.902Z,71.91
2023-05-08T13:39:47.800Z,71.40
2023-05-08T13:42:15.607Z,71.18
2023-05-08T13:44:43.759Z,70.56
2023-05-08T13:47:11.667Z,70.40
2023-05-08T13:49:39.533Z,70.38
2023-05-08T13:52:07.416Z,70.33
2023-05-08T13:54:35.209Z,70.46
2023-05-08T13:57:03.655Z,70.39
2023-05-08T13:59:32.570Z,70.18
2023-05-08T14:02:00.569Z,69.57
2023-05-08T14:04:28.476Z,69.72
2023-05-08T14:06:56.540Z,69.76
2023-05-08T14:09:24.318Z,69.92
2023-05-08T14:11:52.303Z,69.77
2023-05-08T14:14:20.068Z,70.15
2023-05-08T14:16:48.863Z,69.92
2023-05-08T14:19:18.033Z,70.19
2023-05-08T14:21:45.782Z,69.99
2023-05-08T14:24:13.539Z,69.98
2023-05-08T14:26:42.260Z,69.71
2023-05-08T14:29:10.072Z,70.18
2023-05-08T14:31:37.857Z,70.11
2023-05-08T14:34:05.716Z,69.93
2023-05-08T14:36:33.615Z,70.15
2023-05-08T14:39:01.508Z,70.29
2023-05-08T14:41:30.750Z,69.96
2023-05-08T14:43:58.904Z,69.93
2023-05-08T14:46:26.961Z,70.01
2023-05-08T14:48:56.892Z,69.63
2023-05-08T14:51:24.823Z,69.06
2023-05-08T14:53:52.778Z,69.19
2023-05-08T14:58:52.964Z,68.61
2023-05-08T15:01:22.394Z,68.66
2023-05-08T15:03:53.081Z,68.23
2023-05-08T15:06:23.247Z,68.34
2023-05-08T15:08:51.919Z,68.11
2023-05-08T15:11:20.677Z,67.84
2023-05-08T15:13:48.875Z,67.67
2023-05-08T15:16:16.730Z,67.74
2023-05-08T15:18:44.508Z,67.65
2023-05-08T15:21:12.497Z,67.67
2023-05-08T15:23:40.321Z,68.06
2023-05-08T15:26:08.552Z,68.46
2023-05-08T15:28:36.615Z,68.48
2023-05-08T15:31:04.975Z,68.86
2023-05-08T15:33:32.794Z,69.12
2023-05-08T15:36:00.576Z,69.29
2023-05-08T15:38:28.872Z,69.68
2023-05-08T15:40:56.709Z,69.73
2023-05-08T15:43:24.514Z,70.22
2023-05-08T15:45:52.412Z,70.68
2023-05-08T15:48:20.468Z,71.26
2023-05-08T15:50:48.557Z,71.83
2023-05-08T15:53:16.412Z,72.20
2023-05-08T15:55:44.221Z,72.47
2023-05-08T15:58:12.144Z,72.74
2023-05-08T16:00:44.544Z,73.07
2023-05-08T16:03:13.723Z,73.42
2023-05-08T16:05:41.723Z,73.60
2023-05-08T16:08:12.438Z,74.05
2023-05-08T16:10:42.145Z,74.51
2023-05-08T16:13:10.198Z,74.64
2023-05-08T16:15:38.618Z,75.04
2023-05-08T16:18:07.597Z,75.17
2023-05-08T16:20:36.431Z,75.56
2023-05-08T16:23:05.251Z,75.95
2023-05-08T16:25:33.150Z,76.24
2023-05-08T16:28:00.920Z,76.97
2023-05-08T16:30:28.890Z,77.24
2023-05-08T16:32:56.764Z,77.45
2023-05-08T16:35:24.584Z,77.80
2023-05-08T16:37:52.796Z,78.30
2023-05-08T16:40:20.821Z,78.51
2023-05-08T16:42:48.562Z,79.01
2023-05-08T16:45:16.785Z,79.17
2023-05-08T16:47:44.638Z,79.63
2023-05-08T16:50:12.596Z,79.66
2023-05-08T16:52:40.379Z,79.60
2023-05-08T16:55:09.048Z,80.00
2023-05-08T16:57:36.924Z,80.10
2023-05-08T17:00:05.900Z,80.36
2023-05-08T17:02:33.858Z,80.38
2023-05-08T17:05:01.914Z,80.52
2023-05-08T17:07:29.725Z,80.62
2023-05-08T17:09:58.115Z,80.49
2023-05-08T17:12:26.097Z,80.52
2023-05-08T17:14:53.875Z,80.60
2023-05-08T17:17:21.692Z,80.49
2023-05-08T17:19:49.456Z,80.49
2023-05-08T17:22:19.553Z,80.54
2023-05-08T17:24:47.728Z,80.64
2023-05-08T17:27:15.572Z,80.70
2023-05-08T17:29:43.548Z,81.00
2023-05-08T17:32:11.813Z,81.02
2023-05-08T17:34:40.075Z,81.12
2023-05-08T17:37:07.881Z,81.04
2023-05-08T17:39:35.748Z,81.09
2023-05-08T17:42:03.605Z,81.01
2023-05-08T17:44:31.524Z,81.00
2023-05-08T17:46:59.454Z,81.13
2023-05-08T17:49:27.259Z,81.02
2023-05-08T17:51:54.996Z,80.95
2023-05-08T17:54:22.833Z,80.95
2023-05-08T17:56:50.617Z,80.88
2023-05-08T17:59:19.657Z,81.01
2023-05-08T18:01:47.674Z,81.01
2023-05-08T18:04:15.695Z,81.06
2023-05-08T18:06:43.727Z,81.15
2023-05-08T18:09:11.604Z,81.09
2023-05-08T18:11:39.420Z,81.20
2023-05-08T18:14:07.159Z,81.23
2023-05-08T18:16:35.213Z,81.23
2023-05-08T18:19:03.043Z,81.19
2023-05-08T18:21:31.592Z,81.13
2023-05-08T18:23:59.456Z,81.28
2023-05-08T18:26:27.268Z,81.28
2023-05-08T18:28:55.110Z,81.23
2023-05-08T18:31:23.160Z,81.28
2023-05-08T18:33:51.124Z,81.53
2023-05-08T18:36:19.070Z,81.75
2023-05-08T18:38:46.919Z,81.96
2023-05-08T18:41:14.838Z,81.95
2023-05-08T18:43:42.643Z,82.27
2023-05-08T18:46:12.596Z,82.32
2023-05-08T18:48:41.228Z,82.38
2023-05-08T18:51:09.677Z,82.32
2023-05-08T18:53:39.014Z,82.54
2023-05-08T18:56:07.199Z,82.53
2023-05-08T18:58:35.512Z,82.45
2023-05-08T19:01:03.652Z,82.60
2023-05-08T19:03:32.462Z,82.62
2023-05-08T19:06:00.521Z,82.60
2023-05-08T19:08:28.570Z,82.65
2023-05-08T19:10:56.533Z,82.74
2023-05-08T19:13:24.436Z,82.79
2023-05-08T19:15:54.226Z,82.71
2023-05-08T19:18:23.230Z,82.71
2023-05-08T19:20:52.087Z,82.80
2023-05-08T19:23:21.045Z,82.72
2023-05-08T19:25:50.151Z,82.71
2023-05-08T19:28:21.782Z,82.86
2023-05-08T19:30:50.861Z,82.96
2023-05-08T19:33:22.975Z,83.08
2023-05-08T19:35:51.570Z,83.20
2023-05-08T19:38:20.475Z,83.20
2023-05-08T19:40:57.120Z,83.17
2023-05-08T19:43:27.206Z,83.22
2023-05-08T19:45:55.916Z,83.16
2023-05-08T19:48:24.592Z,83.32
2023-05-08T19:50:55.213Z,83.39
2023-05-08T19:53:23.751Z,83.48
2023-05-08T19:55:51.850Z,83.48
2023-05-08T19:58:20.756Z,83.52
2023-05-08T20:00:51.513Z,83.57
2023-05-08T20:03:20.726Z,83.59
2023-05-08T20:05:50.961Z,83.64
2023-05-08T20:08:19.754Z,83.60
2023-05-08T20:10:50.297Z,83.58
2023-05-08T20:13:18.160Z,83.70
2023-05-08T20:15:46.103Z,83.78
2023-05-08T20:18:15.140Z,83.79
2023-05-08T20:20:45.172Z,83.88
2023-05-08T20:23:13.968Z,83.98
2023-05-08T20:25:46.894Z,84.03
2023-05-08T20:28:16.483Z,84.04
2023-05-08T20:30:45.535Z,84.10
2023-05-08T20:33:14.736Z,84.13
2023-05-08T20:35:42.843Z,84.36
2023-05-08T20:38:10.891Z,84.50
2023-05-08T20:40:38.723Z,84.53
2023-05-08T20:43:06.680Z,84.58
2023-05-08T20:45:34.519Z,84.67
2023-05-08T20:48:02.284Z,84.83
2023-05-08T20:50:30.247Z,85.02
2023-05-08T20:52:58.286Z,85.11
2023-05-08T20:55:26.186Z,85.32
2023-05-08T20:57:53.950Z,85.31
2023-05-08T21:00:22.128Z,85.29
2023-05-08T21:02:50.046Z,85.53
2023-05-08T21:05:18.802Z,85.77
2023-05-08T21:07:48.201Z,86.00
2023-05-08T21:10:16.694Z,86.13
2023-05-08T21:12:45.510Z,86.42
2023-05-08T21:15:13.623Z,86.38
2023-05-08T21:17:41.809Z,86.75
2023-05-08T21:20:10.779Z,86.89
2023-05-08T21:22:39.171Z,86.99
2023-05-08T21:25:16.685Z,87.02
2023-05-08T21:27:44.725Z,87.15
2023-05-08T21:30:15.513Z,87.39
2023-05-08T21:32:45.774Z,87.26
2023-05-08T21:35:14.183Z,87.49
2023-05-08T21:37:42.194Z,87.52
2023-05-08T21:40:10.381Z,87.43
2023-05-08T21:42:39.792Z,87.52
2023-05-08T21:45:08.409Z,87.47
2023-05-08T21:47:36.191Z,87.58
2023-05-08T21:50:04.449Z,87.50
2023-05-08T21:52:32.327Z,87.55
2023-05-08T21:55:00.072Z,87.66
2023-05-08T21:57:27.873Z,87.59
2023-05-08T21:59:55.640Z,87.62
2023-05-08T22:02:23.596Z,87.63
2023-05-08T22:04:51.391Z,87.70
2023-05-08T22:07:21.047Z,87.59
2023-05-08T22:09:48.913Z,87.81
2023-05-08T22:12:16.908Z,87.91
2023-05-08T22:14:44.799Z,87.78
2023-05-08T22:17:12.659Z,87.93
2023-05-08T22:19:40.482Z,87.87
2023-05-08T22:22:08.532Z,87.84
2023-05-08T22:24:36.360Z,87.88
2023-05-08T22:27:04.344Z,87.92
2023-05-08T22:29:32.162Z,87.98
2023-05-08T22:32:00.167Z,87.97
2023-05-08T22:34:28.033Z,88.13
2023-05-08T22:36:55.864Z,88.07
2023-05-08T22:39:23.692Z,88.03
2023-05-08T22:41:51.794Z,88.10
2023-05-08T22:44:19.689Z,88.01
2023-05-08T22:46:47.759Z,88.11
2023-05-08T22:49:15.748Z,88.16
2023-05-08T22:51:43.770Z,88.12
2023-05-08T22:54:11.724Z,88.14
2023-05-08T22:56:39.671Z,88.15
2023-05-08T22:59:07.479Z,88.16
2023-05-08T23:01:35.254Z,88.22
2023-05-08T23:04:03.077Z,88.24
2023-05-08T23:06:30.940Z,88.23
2023-05-08T23:08:59.145Z,88.25
2023-05-08T23:11:27.164Z,88.38
2023-05-08T23:13:54.998Z,88.30
2023-05-08T23:16:22.894Z,88.40
2023-05-08T23:18:50.943Z,88.44
2023-05-08T23:21:18.794Z,88.46
2023-05-08T23:23:47.952Z,88.45
2023-05-08T23:26:15.907Z,88.48
2023-05-08T23:28:43.688Z,88.47
2023-05-08T23:31:11.539Z,88.42
2023-05-08T23:33:39.687Z,88.64
2023-05-08T23:36:08.172Z,88.69
2023-05-08T23:38:35.950Z,88.60
2023-05-08T23:41:03.769Z,88.60
2023-05-08T23:43:32.073Z,88.63
2023-05-08T23:45:59.945Z,88.67
2023-05-08T23:48:28.249Z,88.69
2023-05-08T23:50:56.008Z,88.65
2023-05-08T23:53:23.995Z,88.63
2023-05-08T23:55:52.464Z,88.68
2023-05-08T23:58:21.233Z,88.69
